Time;durP1;ratioP1;P1;durP2;ratioP2;P2;SDS_P1;SDS_P2;PMS_P1;PMS_P2;Temp;Humidity;BMP_temperature;BMP_pressure;BME280_temperature;BME280_humidity;BME280_pressure;Samples;Min_cycle;Max_cycle;Signal;HPM_P1;HPM_P2
2022/02/13 00:00:10;;;;;;;6.10;4.20;;;;;;;-1.40;58.94;97882.91;107421;1274;118727;-82
2022/02/13 00:02:58;;;;;;;8.70;4.30;;;;;;;-1.41;59.06;97872.89;105897;1275;1781880;-83
2022/02/13 00:05:26;;;;;;;9.80;4.90;;;;;;;-1.41;58.97;97871.71;107298;1274;114214;-81
2022/02/13 00:07:56;;;;;;;6.70;4.20;;;;;;;-1.42;59.00;97877.73;107312;1275;118236;-82
2022/02/13 00:10:24;;;;;;;12.60;5.30;;;;;;;-1.46;59.07;97870.34;107265;1275;132846;-82
2022/02/13 00:12:53;;;;;;;10.80;5.40;;;;;;;-1.42;59.13;97869.18;107432;1274;108392;-82
2022/02/13 00:15:21;;;;;;;4.60;2.90;;;;;;;-1.42;59.13;97871.13;105774;1275;2113470;-82
2022/02/13 00:17:49;;;;;;;10.30;5.10;;;;;;;-1.41;59.19;97865.41;107213;1274;169736;-82
2022/02/13 00:20:18;;;;;;;10.60;3.90;;;;;;;-1.38;59.24;97858.86;107275;1275;134601;-82
2022/02/13 00:22:46;;;;;;;7.00;3.90;;;;;;;-1.35;59.19;97863.69;107283;1274;140771;-82
2022/02/13 00:25:15;;;;;;;6.10;3.50;;;;;;;-1.34;59.34;97861.73;107318;1274;138629;-82
2022/02/13 00:27:45;;;;;;;6.00;3.20;;;;;;;-1.34;58.85;97859.81;107285;1274;155650;-81
2022/02/13 00:30:14;;;;;;;;;;;;;;;-1.31;58.81;97866.16;107196;1274;186999;-82
2022/02/13 00:32:44;;;;;;;9.90;5.00;;;;;;;-1.35;58.90;97871.17;107511;1274;175302;-82
2022/02/13 00:35:13;;;;;;;11.00;5.40;;;;;;;-1.37;58.96;97866.17;107249;1274;205083;-82
2022/02/13 00:37:42;;;;;;;8.60;5.10;;;;;;;-1.43;58.90;97865.67;106197;1273;1621577;-83
2022/02/13 00:40:12;;;;;;;7.90;5.20;;;;;;;-1.50;58.98;97859.00;107337;1274;132974;-82
2022/02/13 00:42:40;;;;;;;8.80;4.40;;;;;;;-1.51;59.15;97857.90;107338;1274;184348;-82
2022/02/13 00:45:11;;;;;;;7.20;4.10;;;;;;;-1.48;59.22;97853.14;106148;1274;1937909;-82
2022/02/13 00:47:39;;;;;;;8.00;4.40;;;;;;;-1.53;59.34;97851.70;107510;1274;153063;-82
2022/02/13 00:50:09;;;;;;;8.10;4.40;;;;;;;-1.58;59.41;97855.52;107318;1274;187174;-82
2022/02/13 00:52:37;;;;;;;9.90;3.90;;;;;;;-1.59;59.23;97846.10;107387;1273;135209;-82
2022/02/13 00:55:06;;;;;;;7.20;4.00;;;;;;;-1.51;59.32;97845.89;107371;1274;124258;-82
2022/02/13 00:57:34;;;;;;;10.80;5.10;;;;;;;-1.46;58.92;97837.29;107410;1274;154620;-82
2022/02/13 01:00:05;;;;;;;6.20;3.50;;;;;;;-1.48;59.21;97840.23;107353;1274;114993;-82
2022/02/13 01:02:33;;;;;;;8.40;4.70;;;;;;;-1.54;59.06;97839.13;107319;1273;143597;-82
2022/02/13 01:05:02;;;;;;;7.20;3.60;;;;;;;-1.59;59.02;97837.90;107184;1274;202085;-82
2022/02/13 01:07:31;;;;;;;6.80;3.70;;;;;;;-1.58;59.04;97834.20;107080;1274;171148;-82
2022/02/13 01:09:59;;;;;;;7.10;4.10;;;;;;;-1.54;58.91;97830.65;107276;1274;140526;-82
2022/02/13 01:12:28;;;;;;;8.60;4.60;;;;;;;-1.49;58.84;97826.48;106242;1274;1539770;-82
2022/02/13 01:14:56;;;;;;;12.70;5.70;;;;;;;-1.52;58.97;97825.23;107153;1274;137653;-82
2022/02/13 01:17:24;;;;;;;6.10;3.70;;;;;;;-1.51;59.07;97822.40;107158;1274;198272;-82
2022/02/13 01:19:53;;;;;;;12.00;4.80;;;;;;;-1.48;59.18;97823.42;107246;1274;137663;-82
2022/02/13 01:22:21;;;;;;;5.80;3.90;;;;;;;-1.41;59.21;97825.77;107109;1274;156347;-82
2022/02/13 01:24:50;;;;;;;8.20;4.70;;;;;;;-1.44;59.13;97824.66;107448;1275;104456;-82
2022/02/13 01:27:18;;;;;;;7.80;4.20;;;;;;;-1.50;59.38;97820.86;106315;1274;1602005;-82
2022/02/13 01:29:46;;;;;;;11.70;4.40;;;;;;;-1.53;59.66;97815.83;107349;1274;112615;-81
2022/02/13 01:32:15;;;;;;;7.70;3.60;;;;;;;-1.57;59.55;97819.36;106296;1273;1322687;-81
2022/02/13 01:34:43;;;;;;;9.00;4.30;;;;;;;-1.54;59.55;97817.52;107434;1274;106186;-80
2022/02/13 01:37:11;;;;;;;9.50;4.00;;;;;;;-1.53;59.83;97813.94;107523;1275;109737;-83
2022/02/13 01:39:39;;;;;;;9.30;4.40;;;;;;;-1.56;59.48;97814.02;107399;1274;138465;-82
2022/02/13 01:42:09;;;;;;;5.90;3.40;;;;;;;-1.56;59.49;97804.21;106289;1274;1422458;-82
2022/02/13 01:44:38;;;;;;;10.80;4.50;;;;;;;-1.51;59.36;97801.05;107386;1274;113379;-82
2022/02/13 01:47:08;;;;;;;7.10;4.00;;;;;;;-1.55;59.45;97799.73;107401;1274;179375;-82
2022/02/13 01:49:37;;;;;;;10.90;4.50;;;;;;;-1.59;59.68;97800.56;107294;1274;147895;-82
2022/02/13 01:52:06;;;;;;;9.10;4.80;;;;;;;-1.58;59.56;97796.23;107325;1274;103221;-83
2022/02/13 01:54:35;;;;;;;5.60;3.90;;;;;;;-1.59;59.54;97796.41;107372;1274;143575;-82
2022/02/13 01:57:05;;;;;;;6.70;3.50;;;;;;;-1.64;59.87;97786.60;107199;1274;174564;-82
2022/02/13 01:59:35;;;;;;;7.10;4.10;;;;;;;-1.60;59.82;97779.55;107286;1274;151798;-82
2022/02/13 02:02:05;;;;;;;8.60;4.40;;;;;;;-1.60;59.96;97777.27;105904;1274;2084271;-82
2022/02/13 02:04:34;;;;;;;7.00;3.40;;;;;;;-1.62;60.03;97774.69;107740;1274;37824;-82
2022/02/13 02:07:03;;;;;;;7.40;3.60;;;;;;;-1.58;59.71;97773.39;107716;1274;38247;-82
2022/02/13 02:09:32;;;;;;;6.60;3.70;;;;;;;-1.64;59.76;97766.09;106354;1273;1788323;-82
2022/02/13 02:12:04;;;;;;;7.80;4.00;;;;;;;-1.68;59.99;97760.73;107170;1275;137492;-82
2022/02/13 02:14:33;;;;;;;8.70;3.80;;;;;;;-1.66;60.06;97759.08;107305;1274;108402;-82
2022/02/13 02:17:01;;;;;;;9.30;4.80;;;;;;;-1.56;60.22;97751.47;107353;1274;106214;-82
2022/02/13 02:19:31;;;;;;;7.10;4.80;;;;;;;-1.53;60.64;97753.80;107297;1274;159046;-82
2022/02/13 02:21:59;;;;;;;9.00;4.70;;;;;;;-1.49;60.66;97747.55;107274;1274;117585;-82
2022/02/13 02:24:28;;;;;;;6.90;4.00;;;;;;;-1.44;60.55;97742.31;105703;1274;2071910;-82
2022/02/13 02:26:56;;;;;;;7.50;3.90;;;;;;;-1.30;60.34;97751.79;107213;1274;188088;-82
2022/02/13 02:29:24;;;;;;;8.70;4.30;;;;;;;-1.23;60.39;97754.60;107235;1274;115487;-82
2022/02/13 02:31:53;;;;;;;7.30;3.00;;;;;;;-1.23;60.26;97746.19;105892;1274;1859304;-82
2022/02/13 02:34:21;;;;;;;3.70;2.90;;;;;;;-1.27;60.42;97743.16;107346;1273;137631;-82
2022/02/13 02:36:49;;;;;;;7.00;3.90;;;;;;;-1.20;60.22;97733.19;107327;1274;226443;-82
2022/02/13 02:39:18;;;;;;;8.60;4.90;;;;;;;-1.08;60.19;97730.94;107137;1274;168345;-82
2022/02/13 02:41:46;;;;;;;8.90;4.00;;;;;;;-1.06;60.11;97730.16;107093;1274;206258;-82
2022/02/13 02:44:14;;;;;;;7.60;4.00;;;;;;;-1.11;59.97;97726.12;106149;1274;1653798;-82
2022/02/13 02:46:43;;;;;;;6.30;4.20;;;;;;;-1.15;59.68;97720.25;107379;1274;142877;-83
2022/02/13 02:49:11;;;;;;;8.40;4.00;;;;;;;-1.17;59.65;97720.70;107469;1274;125410;-82
2022/02/13 02:51:40;;;;;;;7.00;4.00;;;;;;;-1.18;59.39;97723.13;106541;1274;1300897;-82
2022/02/13 02:54:08;;;;;;;7.60;4.10;;;;;;;-1.19;59.55;97722.27;107549;1273;127712;-83
2022/02/13 02:56:37;;;;;;;5.40;3.60;;;;;;;-1.13;59.36;97722.34;107413;1274;133434;-83
2022/02/13 02:59:05;;;;;;;6.50;4.30;;;;;;;-1.20;59.73;97721.83;107313;1274;125413;-82
2022/02/13 03:01:33;;;;;;;6.70;3.70;;;;;;;-1.30;59.70;97714.54;107121;1274;166253;-82
2022/02/13 03:04:01;;;;;;;9.70;4.20;;;;;;;-1.38;59.57;97713.26;107155;1273;215020;-83
2022/02/13 03:06:30;;;;;;;7.20;4.40;;;;;;;-1.39;60.01;97708.80;107399;1274;122664;-82
2022/02/13 03:08:58;;;;;;;5.30;3.20;;;;;;;-1.39;60.02;97708.80;104737;1274;2011656;-82
2022/02/13 03:11:28;;;;;;;6.60;3.80;;;;;;;-1.43;60.21;97712.91;107455;1274;96213;-82
2022/02/13 03:13:59;;;;;;;6.00;3.80;;;;;;;-1.39;60.34;97707.83;107213;1274;221527;-82
2022/02/13 03:16:27;;;;;;;9.80;5.00;;;;;;;-1.32;60.15;97703.63;107265;1274;144859;-83
2022/02/13 03:18:55;;;;;;;6.80;3.60;;;;;;;-1.30;60.18;97695.84;107049;1274;189088;-82
2022/02/13 03:21:24;;;;;;;8.10;3.30;;;;;;;-1.28;60.38;97697.96;105942;1274;1860681;-82
2022/02/13 03:23:52;;;;;;;7.20;4.20;;;;;;;-1.24;60.37;97697.79;107151;1274;197015;-82
2022/02/13 03:26:24;;;;;;;9.40;4.70;;;;;;;-1.25;60.41;97684.73;105821;1274;1830897;-82
2022/02/13 03:28:53;;;;;;;6.00;3.00;;;;;;;-1.26;60.62;97684.57;105767;1274;2041178;-82
2022/02/13 03:31:21;;;;;;;6.80;4.10;;;;;;;-1.23;60.31;97677.15;105882;1274;1914857;-82
2022/02/13 03:33:49;;;;;;;4.90;3.30;;;;;;;-1.26;60.20;97692.27;107098;1274;164298;-82
2022/02/13 03:36:19;;;;;;;7.20;3.70;;;;;;;-1.28;60.40;97681.50;107179;1274;153865;-81
2022/02/13 03:38:47;;;;;;;6.60;4.00;;;;;;;-1.29;60.54;97684.09;107172;1274;157850;-82
2022/02/13 03:41:24;;;;;;;6.60;4.10;;;;;;;-1.27;60.35;97676.92;104763;1274;1856812;-81
2022/02/13 03:43:52;;;;;;;6.10;3.40;;;;;;;-1.29;60.67;97680.73;107352;1274;146960;-83
2022/02/13 03:46:41;;;;;;;7.20;4.10;;;;;;;-1.29;60.35;97672.41;107286;1274;175687;-82
2022/02/13 03:49:09;;;;;;;8.40;3.80;;;;;;;-1.27;60.37;97678.45;107389;1274;217276;-82
2022/02/13 03:51:38;;;;;;;7.20;3.60;;;;;;;-1.22;60.30;97661.04;107446;1274;121193;-82
2022/02/13 03:54:06;;;;;;;5.90;3.50;;;;;;;-1.25;60.06;97663.14;107184;1274;200793;-82
2022/02/13 03:56:34;;;;;;;8.00;4.50;;;;;;;-1.27;60.17;97662.36;107098;1273;189965;-82
2022/02/13 03:59:03;;;;;;;5.60;3.60;;;;;;;-1.25;59.87;97664.52;107248;1274;120936;-82
2022/02/13 04:01:31;;;;;;;6.90;3.80;;;;;;;-1.21;60.07;97666.02;106098;1274;1524364;-82
2022/02/13 04:04:00;;;;;;;5.90;3.50;;;;;;;-1.22;59.82;97679.58;106133;1274;1541705;-82
2022/02/13 04:06:28;;;;;;;6.70;4.10;;;;;;;-1.29;59.83;97665.48;105574;1275;2047859;-82
2022/02/13 04:08:56;;;;;;;6.00;3.20;;;;;;;-1.29;59.73;97659.04;107056;1274;212092;-82
2022/02/13 04:11:25;;;;;;;8.20;3.90;;;;;;;-1.33;59.78;97661.83;106149;1274;1542175;-82
2022/02/13 04:13:53;;;;;;;6.30;3.60;;;;;;;-1.37;60.18;97655.17;107228;1274;185666;-82
2022/02/13 04:16:24;;;;;;;4.40;3.20;;;;;;;-1.43;59.80;97667.18;107329;1274;139931;-82
2022/02/13 04:18:52;;;;;;;7.90;4.40;;;;;;;-1.42;60.02;97661.80;107379;1274;164663;-82
2022/02/13 04:21:20;;;;;;;6.90;3.70;;;;;;;-1.40;59.81;97654.84;106039;1274;1747616;-82
2022/02/13 04:23:59;;;;;;;6.70;4.40;;;;;;;-1.37;59.51;97661.64;105756;1275;2047202;-82
2022/02/13 04:26:28;;;;;;;5.30;3.50;;;;;;;-1.46;59.81;97650.66;107374;1274;153169;-82
2022/02/13 04:28:56;;;;;;;10.50;4.30;;;;;;;-1.47;59.87;97655.28;107238;1274;162049;-82
2022/02/13 04:31:24;;;;;;;11.00;4.20;;;;;;;-1.46;59.82;97648.42;107319;1274;107815;-82
2022/02/13 04:33:53;;;;;;;8.10;4.60;;;;;;;-1.40;59.89;97648.64;105826;1274;2034506;-82
2022/02/13 04:36:22;;;;;;;6.00;3.40;;;;;;;-1.40;59.80;97646.00;107281;1273;138289;-82
2022/02/13 04:38:51;;;;;;;6.00;3.00;;;;;;;-1.43;59.74;97643.38;107203;1274;170826;-83
2022/02/13 04:41:21;;;;;;;6.10;3.60;;;;;;;-1.44;59.71;97641.15;107132;1274;187060;-82
2022/02/13 04:43:49;;;;;;;8.40;4.30;;;;;;;-1.47;59.66;97634.36;107205;1275;152507;-83
2022/02/13 04:46:18;;;;;;;6.90;4.40;;;;;;;-1.50;59.60;97637.29;107372;1274;112544;-82
2022/02/13 04:48:46;;;;;;;8.40;4.50;;;;;;;-1.56;59.66;97636.27;107378;1274;179203;-83
2022/02/13 04:51:15;;;;;;;5.60;3.30;;;;;;;-1.66;59.73;97628.98;107271;1274;122502;-82
2022/02/13 04:53:43;;;;;;;7.30;3.90;;;;;;;-1.72;59.78;97623.84;107462;1274;123484;-83
2022/02/13 04:56:11;;;;;;;11.10;4.80;;;;;;;-1.74;59.89;97623.90;107401;1274;105128;-83
2022/02/13 04:58:40;;;;;;;6.60;4.00;;;;;;;-1.80;59.86;97627.05;107505;1274;131295;-83
2022/02/13 05:01:08;;;;;;;7.60;4.10;;;;;;;-1.85;59.97;97621.67;107394;1274;117818;-82
2022/02/13 05:03:36;;;;;;;7.40;3.90;;;;;;;-1.74;59.88;97625.56;107339;1274;136870;-82
2022/02/13 05:06:06;;;;;;;4.60;3.30;;;;;;;-1.62;59.80;97628.48;107295;1274;138853;-82
2022/02/13 05:08:34;;;;;;;5.70;2.80;;;;;;;-1.64;59.65;97613.09;107306;1274;199026;-83
2022/02/13 05:11:02;;;;;;;7.10;3.50;;;;;;;-1.64;59.72;97618.14;107313;1274;138257;-82
2022/02/13 05:13:31;;;;;;;7.90;4.30;;;;;;;-1.72;59.70;97615.18;107329;1274;110733;-82
2022/02/13 05:15:59;;;;;;;7.70;3.70;;;;;;;-1.80;59.78;97619.77;107114;1274;185086;-83
2022/02/13 05:18:27;;;;;;;5.10;3.20;;;;;;;-1.85;60.12;97616.47;107060;1274;221513;-82
2022/02/13 05:20:56;;;;;;;3.90;2.90;;;;;;;-1.86;60.34;97611.55;107278;1274;139361;-82
2022/02/13 05:23:25;;;;;;;8.50;3.90;;;;;;;-1.86;60.22;97616.29;107200;1274;158573;-82
2022/02/13 05:25:53;;;;;;;7.30;3.70;;;;;;;-1.83;60.15;97610.17;107145;1274;139010;-82
2022/02/13 05:28:21;;;;;;;4.80;2.70;;;;;;;-1.89;60.05;97606.21;107257;1274;155610;-83
2022/02/13 05:30:50;;;;;;;7.30;4.50;;;;;;;-1.98;60.30;97601.67;107187;1274;141227;-83
2022/02/13 05:33:18;;;;;;;6.40;3.10;;;;;;;-2.03;60.35;97602.52;107144;1274;169878;-83
2022/02/13 05:35:46;;;;;;;4.60;2.30;;;;;;;-2.07;60.30;97592.17;107225;1274;132329;-82
2022/02/13 05:38:14;;;;;;;8.20;4.70;;;;;;;-2.04;60.49;97589.54;107248;1274;141248;-82
2022/02/13 05:40:43;;;;;;;7.50;4.60;;;;;;;-1.93;60.60;97588.88;107367;1274;141247;-82
2022/02/13 05:43:11;;;;;;;5.30;3.30;;;;;;;-1.87;60.34;97591.25;104639;1274;1974797;-82
2022/02/13 05:45:40;;;;;;;6.40;4.20;;;;;;;-1.89;60.26;97592.70;107415;1274;112923;-82
2022/02/13 05:48:08;;;;;;;7.00;3.90;;;;;;;-1.88;60.38;97598.64;107073;1274;186305;-82
2022/02/13 05:50:37;;;;;;;5.20;2.60;;;;;;;-1.82;59.95;97597.27;105874;1274;2044435;-82
2022/02/13 05:53:06;;;;;;;6.00;2.80;;;;;;;-1.74;59.68;97595.86;107311;1274;118000;-82
2022/02/13 05:55:34;;;;;;;5.90;2.80;;;;;;;-1.69;59.62;97606.35;107138;1274;176081;-83
2022/02/13 05:58:03;;;;;;;7.30;3.60;;;;;;;-1.67;59.53;97593.79;107175;1274;163143;-82
2022/02/13 06:00:32;;;;;;;8.20;3.90;;;;;;;-1.66;59.28;97596.84;107111;1274;176668;-82
2022/02/13 06:03:01;;;;;;;3.80;2.10;;;;;;;-1.70;59.29;97590.67;107239;1274;179783;-82
2022/02/13 06:05:29;;;;;;;6.60;3.60;;;;;;;-1.67;59.17;97588.52;107242;1274;161712;-83
2022/02/13 06:07:58;;;;;;;8.10;4.50;;;;;;;-1.60;58.89;97585.52;107175;1274;224604;-82
2022/02/13 06:10:27;;;;;;;6.00;3.10;;;;;;;-1.59;59.23;97591.88;107104;1274;215257;-82
2022/02/13 06:12:55;;;;;;;6.50;3.80;;;;;;;-1.59;59.24;97590.61;107162;1274;205417;-82
2022/02/13 06:15:24;;;;;;;6.50;3.80;;;;;;;-1.26;59.64;97588.40;105985;1274;1821409;-83
2022/02/13 06:17:53;;;;;;;6.90;4.30;;;;;;;-0.70;59.14;97589.85;105804;1274;2023387;-83
2022/02/13 06:20:22;;;;;;;4.50;3.30;;;;;;;-0.26;58.04;97590.62;107171;1274;142182;-83
2022/02/13 06:22:50;;;;;;;5.20;3.50;;;;;;;0.11;57.39;97584.54;105317;1274;2588710;-83
2022/02/13 06:25:18;;;;;;;5.60;3.90;;;;;;;0.37;56.19;97580.20;107146;1274;190259;-83
2022/02/13 06:27:47;;;;;;;6.90;3.80;;;;;;;0.52;55.12;97579.11;107143;1274;256123;-83
2022/02/13 06:30:16;;;;;;;7.00;3.60;;;;;;;0.70;54.68;97571.56;105819;1274;2035951;-81
2022/02/13 06:32:45;;;;;;;7.20;3.60;;;;;;;0.92;53.64;97557.79;106973;1274;201438;-82
2022/02/13 06:35:13;;;;;;;7.90;4.40;;;;;;;1.04;52.43;97557.40;105838;1274;2046972;-83
2022/02/13 06:37:42;;;;;;;6.50;3.60;;;;;;;1.21;52.84;97548.59;107225;1274;146444;-83
2022/02/13 06:40:13;;;;;;;7.60;4.30;;;;;;;1.48;51.65;97545.34;106089;1274;1907761;-84
2022/02/13 06:42:41;;;;;;;4.80;2.80;;;;;;;1.67;51.48;97552.27;106140;1274;1563488;-82
2022/02/13 06:45:10;;;;;;;7.00;4.00;;;;;;;1.87;51.01;97539.83;106398;1274;1324564;-83
2022/02/13 06:47:38;;;;;;;5.10;3.80;;;;;;;1.76;50.32;97540.20;107228;1274;174693;-83
2022/02/13 06:50:09;;;;;;;4.60;3.40;;;;;;;1.60;50.48;97535.45;107115;1274;206073;-83
2022/02/13 06:52:39;;;;;;;6.60;4.40;;;;;;;1.58;50.86;97528.09;106000;1274;1520161;-83
2022/02/13 06:55:09;;;;;;;7.80;4.90;;;;;;;1.64;50.65;97516.11;106080;1274;1836145;-83
2022/02/13 06:57:47;;;;;;;6.00;3.70;;;;;;;1.72;50.90;97522.50;107232;1274;176391;-84
2022/02/13 07:00:17;;;;;;;8.70;4.80;;;;;;;2.04;50.36;97507.36;107267;1274;175097;-83
2022/02/13 07:02:46;;;;;;;7.60;4.60;;;;;;;2.49;50.12;97503.09;106037;1274;2047713;-83
2022/02/13 07:05:16;;;;;;;5.60;3.30;;;;;;;2.86;49.41;97497.42;107085;1274;146897;-82
2022/02/13 07:07:44;;;;;;;8.70;5.00;;;;;;;2.97;48.20;97493.20;107137;1274;134978;-82
2022/02/13 07:10:13;;;;;;;10.30;4.90;;;;;;;2.97;48.13;97489.65;106017;1274;1818774;-84
2022/02/13 07:12:42;;;;;;;6.80;3.40;;;;;;;3.14;47.66;97481.39;105692;1274;2211647;-84
2022/02/13 07:15:11;;;;;;;5.60;4.20;;;;;;;3.24;47.32;97478.89;107258;1274;217580;-84
2022/02/13 07:17:42;;;;;;;8.30;4.00;;;;;;;3.38;47.11;97476.36;107270;1274;205329;-84
2022/02/13 07:20:11;;;;;;;6.90;4.20;;;;;;;3.56;46.71;97470.26;107353;1274;228731;-84
2022/02/13 07:22:44;;;;;;;7.00;4.50;;;;;;;3.76;45.42;97455.59;105988;1274;1857539;-84
2022/02/13 07:25:13;;;;;;;8.40;4.40;;;;;;;3.86;45.93;97471.20;106328;1274;1295544;-84
2022/02/13 07:27:41;;;;;;;8.00;4.50;;;;;;;4.05;45.59;97462.02;107219;1273;298408;-84
2022/02/13 07:30:14;;;;;;;6.10;3.70;;;;;;;4.27;45.17;97461.48;105256;1274;1587680;-84
2022/02/13 07:32:44;;;;;;;9.60;5.10;;;;;;;4.32;44.55;97456.91;107310;1274;166219;-84
2022/02/13 07:35:17;;;;;;;8.60;4.90;;;;;;;4.48;44.61;97462.21;106199;1274;1521722;-83
2022/02/13 07:37:47;;;;;;;6.30;3.90;;;;;;;4.64;43.73;97465.98;106147;1274;1802267;-83
2022/02/13 07:40:16;;;;;;;8.40;5.30;;;;;;;4.82;43.55;97465.66;107056;1274;278648;-82
2022/02/13 07:42:54;;;;;;;8.00;5.30;;;;;;;4.92;43.29;97465.66;104684;1275;2614543;-82
2022/02/13 07:45:23;;;;;;;7.90;4.80;;;;;;;4.92;42.98;97480.13;106282;1275;1288118;-84
2022/02/13 07:47:52;;;;;;;9.40;5.40;;;;;;;5.12;42.85;97478.36;107106;1274;195532;-83
2022/02/13 07:50:21;;;;;;;7.70;4.70;;;;;;;5.22;42.56;97487.84;107250;1274;117141;-84
2022/02/13 07:52:50;;;;;;;8.10;5.10;;;;;;;5.45;42.25;97472.55;107299;1274;147187;-83
2022/02/13 07:55:18;;;;;;;9.30;4.10;;;;;;;5.49;41.90;97470.50;107251;1274;186920;-84
2022/02/13 07:57:47;;;;;;;8.60;4.50;;;;;;;5.53;41.42;97485.09;107218;1274;145657;-84
2022/02/13 08:00:16;;;;;;;8.20;4.50;;;;;;;5.64;41.37;97485.63;107146;1274;142326;-82
2022/02/13 08:02:44;;;;;;;7.10;4.60;;;;;;;5.53;40.82;97487.39;107312;1273;134719;-81
2022/02/13 08:05:13;;;;;;;5.20;3.40;;;;;;;5.38;40.56;97491.20;107368;1274;206655;-84
2022/02/13 08:07:49;;;;;;;5.50;3.80;;;;;;;5.24;39.92;97477.44;107329;1274;175613;-83
2022/02/13 08:10:18;;;;;;;5.50;3.70;;;;;;;5.31;39.91;97479.88;106324;1274;1261496;-83
2022/02/13 08:12:48;;;;;;;8.60;4.20;;;;;;;5.30;40.21;97480.22;107387;1274;122670;-83
2022/02/13 08:15:17;;;;;;;6.90;4.40;;;;;;;5.45;40.41;97477.23;106103;1274;1393194;-83
2022/02/13 08:17:45;;;;;;;7.30;4.20;;;;;;;5.27;40.49;97468.30;106437;1274;1322417;-82
2022/02/13 08:20:14;;;;;;;8.40;4.60;;;;;;;5.21;40.89;97471.41;106381;1274;1173152;-83
2022/02/13 08:22:43;;;;;;;7.50;4.40;;;;;;;5.17;40.82;97466.25;106186;1274;1834577;-83
2022/02/13 08:25:12;;;;;;;6.80;4.30;;;;;;;4.89;40.52;97470.38;104711;1273;2028447;-83
2022/02/13 08:27:44;;;;;;;6.90;3.30;;;;;;;4.65;40.47;97463.88;107523;1274;113607;-82
2022/02/13 08:30:13;;;;;;;7.80;4.40;;;;;;;4.46;40.53;97457.13;107340;1274;142188;-82
2022/02/13 08:32:42;;;;;;;5.20;3.20;;;;;;;4.26;41.19;97461.05;107232;1274;199500;-83
2022/02/13 08:35:11;;;;;;;7.80;4.10;;;;;;;4.17;41.25;97453.46;106085;1274;1973622;-83
2022/02/13 08:37:40;;;;;;;6.90;3.80;;;;;;;3.94;41.81;97449.20;107518;1274;128024;-82
2022/02/13 08:40:11;;;;;;;8.60;3.70;;;;;;;3.70;41.92;97449.42;107310;1274;145099;-82
2022/02/13 08:42:38;;;;;;;;;;;;;;;3.57;40.89;97452.48;107800;1274;82451;-82
2022/02/13 08:45:08;;;;;;;8.10;2.90;;;;;;;3.54;41.17;97447.57;107680;1274;37092;-82
2022/02/13 08:47:37;;;;;;;4.50;3.10;;;;;;;3.45;40.71;97452.79;107773;1274;43273;-82
2022/02/13 08:50:07;;;;;;;4.50;3.10;;;;;;;3.39;41.24;97449.69;107529;1273;55761;-82
2022/02/13 08:52:35;;;;;;;3.80;2.60;;;;;;;3.35;40.49;97441.59;107593;1274;62117;-82
2022/02/13 08:55:04;;;;;;;4.60;2.70;;;;;;;3.34;40.01;97445.23;107342;1274;127294;-83
2022/02/13 08:57:33;;;;;;;3.40;2.40;;;;;;;3.36;39.59;97437.84;107079;1274;206036;-82
2022/02/13 09:00:02;;;;;;;4.50;2.70;;;;;;;3.37;39.69;97443.31;106349;1274;1497594;-83
2022/02/13 09:02:32;;;;;;;5.10;3.00;;;;;;;3.40;40.07;97440.77;107256;1274;146039;-82
2022/02/13 09:05:02;;;;;;;4.40;2.70;;;;;;;3.36;39.64;97453.05;107286;1274;133476;-82
2022/02/13 09:07:31;;;;;;;5.90;3.20;;;;;;;3.33;40.37;97457.86;107412;1274;128501;-82
2022/02/13 09:09:59;;;;;;;4.40;3.00;;;;;;;3.33;41.18;97459.16;107319;1274;136928;-82
2022/02/13 09:12:29;;;;;;;4.20;2.70;;;;;;;3.40;40.89;97464.40;107124;1274;172791;-83
2022/02/13 09:15:02;;;;;;;5.40;2.70;;;;;;;3.37;40.65;97451.23;107364;1274;107944;-83
2022/02/13 09:17:31;;;;;;;6.30;3.60;;;;;;;3.24;41.03;97458.05;107237;1274;149788;-83
2022/02/13 09:19:59;;;;;;;6.10;3.10;;;;;;;3.16;40.95;97440.43;107280;1274;168267;-83
2022/02/13 09:22:28;;;;;;;4.00;2.80;;;;;;;3.05;40.75;97452.66;107298;1273;117764;-83
2022/02/13 09:24:56;;;;;;;7.80;3.40;;;;;;;3.03;41.67;97448.04;107170;1274;170985;-83
2022/02/13 09:27:24;;;;;;;5.60;3.40;;;;;;;3.06;41.64;97451.64;107333;1274;166049;-83
2022/02/13 09:29:54;;;;;;;4.50;2.80;;;;;;;3.06;41.99;97455.75;107355;1274;114844;-82
2022/02/13 09:32:23;;;;;;;5.90;2.90;;;;;;;3.12;41.97;97451.39;107204;1274;170281;-83
2022/02/13 09:34:52;;;;;;;5.50;3.40;;;;;;;3.07;42.13;97446.20;105724;1274;2112760;-83
2022/02/13 09:37:21;;;;;;;5.60;3.50;;;;;;;3.10;42.17;97447.77;107245;1274;134653;-82
2022/02/13 09:39:49;;;;;;;6.50;3.30;;;;;;;3.15;42.27;97450.31;107300;1274;152631;-83
2022/02/13 09:42:20;;;;;;;6.10;3.30;;;;;;;3.22;42.14;97455.77;107138;1274;148362;-82
2022/02/13 09:44:48;;;;;;;4.40;2.40;;;;;;;3.17;41.48;97448.69;107365;1274;104775;-83
2022/02/13 09:47:19;;;;;;;4.90;2.90;;;;;;;3.20;41.14;97445.42;107236;1274;126170;-83
2022/02/13 09:49:47;;;;;;;5.80;3.20;;;;;;;3.23;40.93;97441.06;107193;1274;182823;-83
2022/02/13 09:52:16;;;;;;;4.30;2.50;;;;;;;3.32;40.81;97448.28;107206;1274;137136;-82
2022/02/13 09:54:45;;;;;;;3.30;2.60;;;;;;;3.34;40.49;97444.47;107362;1274;178298;-80
2022/02/13 10:00:02;;;;;;;7.20;3.70;;;;;;;3.52;40.55;97441.66;107361;1274;120906;-83
2022/02/13 10:02:38;;;;;;;7.00;3.40;;;;;;;3.63;41.09;97444.59;107381;1274;120834;-83
2022/02/13 10:05:09;;;;;;;7.60;3.80;;;;;;;3.76;41.03;97438.52;107118;1275;183209;-83
2022/02/13 10:07:39;;;;;;;7.10;3.30;;;;;;;3.80;41.09;97440.79;107384;1274;118038;-83
2022/02/13 10:10:11;;;;;;;6.20;3.20;;;;;;;3.84;39.92;97436.45;107316;1273;117844;-83
2022/02/13 10:12:42;;;;;;;5.30;2.90;;;;;;;3.74;39.78;97444.23;107267;1274;157343;-84
2022/02/13 10:15:30;;;;;;;5.70;3.10;;;;;;;3.80;40.13;97436.07;106340;1274;1525851;-84
2022/02/13 10:18:01;;;;;;;5.40;3.20;;;;;;;3.86;39.87;97437.44;107339;1274;135318;-83
2022/02/13 10:20:31;;;;;;;6.30;3.20;;;;;;;3.73;39.88;97433.55;107311;1274;131441;-83
2022/02/13 10:23:06;;;;;;;9.70;3.40;;;;;;;3.65;40.44;97428.45;107208;1274;169780;-83
2022/02/13 10:25:34;;;;;;;4.70;2.80;;;;;;;3.71;39.56;97409.25;107343;1274;119286;-83
2022/02/13 10:28:11;;;;;;;5.90;3.40;;;;;;;3.71;38.70;97423.23;107246;1274;130902;-84
2022/02/13 10:30:41;;;;;;;5.90;3.10;;;;;;;3.78;39.43;97425.92;107272;1274;118428;-83
2022/02/13 10:33:20;;;;;;;10.30;3.50;;;;;;;3.85;39.53;97406.66;107402;1274;136582;-83
2022/02/13 10:36:10;;;;;;;9.00;3.70;;;;;;;3.75;38.86;97407.52;107252;1274;160719;-83
2022/02/13 10:38:40;;;;;;;6.90;3.50;;;;;;;3.73;40.27;97412.61;107267;1274;144357;-83
2022/02/13 10:41:15;;;;;;;6.20;3.40;;;;;;;3.82;40.15;97407.30;107256;1274;133357;-83
2022/02/13 10:44:05;;;;;;;6.10;3.30;;;;;;;3.88;40.11;97404.38;107342;1274;121065;-83
2022/02/13 10:46:34;;;;;;;;;;;;;;;3.94;40.13;97400.84;107294;1274;168528;-83
2022/02/13 10:49:03;;;;;;;5.70;4.10;;;;;;;3.94;40.17;97397.02;107411;1274;130906;-83
2022/02/13 10:51:33;;;;;;;8.40;4.30;;;;;;;4.03;40.45;97385.14;107295;1274;146025;-83
2022/02/13 10:54:04;;;;;;;9.00;4.50;;;;;;;4.06;40.33;97380.66;107758;1273;39036;-83
2022/02/13 10:56:35;;;;;;;7.20;4.00;;;;;;;4.23;40.93;97381.21;107554;1274;195237;-84
2022/02/13 10:59:09;;;;;;;8.00;3.60;;;;;;;4.38;40.08;97373.75;107654;1274;167136;-84
2022/02/13 11:01:38;;;;;;;6.40;3.60;;;;;;;4.40;39.86;97376.52;106326;1273;1576178;-84
2022/02/13 11:04:07;;;;;;;8.10;4.40;;;;;;;4.44;39.00;97359.57;107746;1274;53231;-84
2022/02/13 11:06:37;;;;;;;7.20;4.00;;;;;;;4.42;39.09;97375.27;107814;1274;35170;-84
2022/02/13 11:09:18;;;;;;;9.20;4.60;;;;;;;4.54;39.46;97369.80;107709;1274;36913;-84
2022/02/13 11:11:47;;;;;;;6.40;3.80;;;;;;;4.58;39.28;97357.10;107715;1274;98167;-83
2022/02/13 11:14:30;;;;;;;8.70;3.80;;;;;;;4.40;39.06;97371.25;106191;1274;2087059;-83
2022/02/13 11:17:01;;;;;;;7.40;3.90;;;;;;;4.27;39.52;97361.80;107547;1274;207706;-84
2022/02/13 11:19:31;;;;;;;7.40;4.70;;;;;;;4.26;39.53;97358.63;106186;1273;1997043;-83
2022/02/13 11:22:02;;;;;;;8.60;5.00;;;;;;;4.28;39.74;97361.83;107748;1274;57803;-84
2022/02/13 11:24:35;;;;;;;5.00;3.60;;;;;;;4.31;39.69;97354.35;106579;1274;2260495;-84
2022/02/13 11:27:08;;;;;;;7.40;3.80;;;;;;;4.30;39.00;97356.17;107415;1274;206569;-84
2022/02/13 11:29:51;;;;;;;8.30;4.20;;;;;;;4.28;39.32;97354.17;107693;1274;54272;-84
2022/02/13 11:32:42;;;;;;;7.80;4.50;;;;;;;4.25;39.10;97344.66;107681;1274;167437;-84